CW6020 Teulada ES current weather conditions

sailwx.info

Wind from 090

Air temperature 8.3° C
Dewpoint 3.0° C

Last reported at 2016-May-02 00:41 UTC.
Time now 2016-May-02 01:26 UTC

Location: N 38°44' E 000°06'.
View on Google Maps.

See reports from other nearby stations

  
Tides and Currents Weather Stations Pressure Air Temp Water Temp Dewpoint Dewpoint Depression Visibility Wind Speed Wind Dir Waves Ship Positions
date/time (UTC)wind fromknots sea level pressurealtimeterstation pressurevisibilityair tempwater tempwave heightnotes
2016-May-02 00:41 090 8.3
2016-May-02 00:31 8.3
2016-May-02 00:21 8.3
2016-May-02 00:11 090 8.3
2016-May-02 00:01 090 8.3
2016-May-01 23:51 8.3
2016-May-01 23:41 090 8.9
2016-May-01 23:31 090 8.9
2016-May-01 23:21 8.9
2016-May-01 23:11 8.9
2016-May-01 23:01 090 8.9
2016-May-01 22:51 8.9
2016-May-01 22:41 180 0 gusting 1 9.4
2016-May-01 22:31 090 9.4
2016-May-01 22:21 9.4
2016-May-01 22:11 135 0 gusting 2 10.0
2016-May-01 22:01 090 10.0
2016-May-01 21:51 135 10.6
2016-May-01 21:41 135 10.6
2016-May-01 21:31 10.6
2016-May-01 21:21 045 0 gusting 1 11.1
2016-May-01 21:11 180 0 gusting 2 11.7
2016-May-01 21:01 11.7
2016-May-01 20:51 12.2
2016-May-01 20:41 12.8
2016-May-01 20:31 12.8
2016-May-01 20:21 13.3
2016-May-01 20:11 13.9
2016-May-01 20:01 135 13.9
2016-May-01 19:51 090 14.4
2016-May-01 19:41 270 0 gusting 1 15.0
2016-May-01 19:31 225 0 gusting 2 15.0
2016-May-01 19:21 315 0 gusting 1 15.6
2016-May-01 19:11 15.6
2016-May-01 19:01 270 0 gusting 1 16.1
2016-May-01 18:51 270 16.7
2016-May-01 18:41 270 17.2
2016-May-01 18:31 180 1 gusting 2 18.3
2016-May-01 18:21 225 2 gusting 4 20.0
2016-May-01 18:08 135 0 gusting 1 21.1
2016-May-01 17:56 21.1
2016-May-01 17:46 21.1
2016-May-01 17:36 045 0 gusting 1 21.1
2016-May-01 17:26 21.1
2016-May-01 17:16 090 0 gusting 2 21.1
2016-May-01 17:06 090 0 gusting 2 21.1
2016-May-01 16:56 21.1
2016-May-01 16:46 270 0 gusting 2 20.6
2016-May-01 16:36 090 0 gusting 1 20.6
2016-May-01 16:26 180 20.6
2016-May-01 16:16 135 1 gusting 2 20.6
2016-May-01 16:06 090 20.6
2016-May-01 15:56 135 1 gusting 3 20.6
2016-May-01 15:46 225 0 gusting 2 20.6
2016-May-01 15:36 135 2 gusting 4 20.6
2016-May-01 15:26 180 1 gusting 3 20.0
2016-May-01 15:16 090 2 gusting 7 20.0
2016-May-01 15:06 090 2 gusting 6 20.0
2016-May-01 14:56 090 1 gusting 3 20.0
2016-May-01 14:46 315 2 gusting 5 20.0
2016-May-01 14:36 090 2 gusting 5 20.0
2016-May-01 14:26 090 2 gusting 5 20.0
2016-May-01 14:16 090 1 gusting 3 20.0
2016-May-01 14:06 090 2 gusting 6 20.0
2016-May-01 13:56 315 2 gusting 3 20.0
2016-May-01 13:46 090 2 gusting 5 20.0
2016-May-01 13:36 20.0
2016-May-01 13:26 270 2 gusting 6 20.0
2016-May-01 13:16 045 1 gusting 4 20.0
2016-May-01 13:06 045 2 gusting 6 19.4
2016-May-01 12:56 19.4
2016-May-01 12:46 135 1 gusting 2 19.4
2016-May-01 12:36 315 1 gusting 5 19.4
2016-May-01 12:26 337 2 gusting 4 19.4
2016-May-01 12:16 180 0 gusting 2 18.9
2016-May-01 12:06 090 0 gusting 2 18.9
2016-May-01 11:56 315 2 gusting 5 18.3
2016-May-01 11:46 315 6 gusting 7 17.8
2016-May-01 11:36 045 2 gusting 5 17.8
2016-May-01 11:26 270 4 gusting 7 17.8
2016-May-01 11:16 315 4 gusting 6 17.8
2016-May-01 11:06 225 4 gusting 7 17.8
2016-May-01 10:56 045 0 gusting 2 17.2
2016-May-01 10:46 315 1 gusting 2 17.2
2016-May-01 10:36 270 4 gusting 7 16.7
2016-May-01 10:26 16.7
2016-May-01 10:16 16.1
2016-May-01 10:06 16.1
2016-May-01 09:56 090 6 gusting 13 16.1
2016-May-01 09:46 045 4 gusting 11 16.1
2016-May-01 09:36 225 1 gusting 4 16.1
2016-May-01 09:26 270 2 gusting 4 15.6
2016-May-01 09:16 16.1
2016-May-01 09:06 270 5 gusting 8 15.6
2016-May-01 08:56 202 3 gusting 5 15.6
2016-May-01 08:46 15.6
2016-May-01 08:36 225 1 gusting 5 15.0
2016-May-01 08:26 090 1 gusting 2 14.4
2016-May-01 08:16 315 2 gusting 5 13.9
2016-May-01 08:06 270 4 gusting 6 13.9
2016-May-01 07:56 045 2 gusting 5 13.3
2016-May-01 07:46 315 3 gusting 5 12.8
2016-May-01 07:36 270 2 gusting 5 12.8
2016-May-01 07:26 180 1 gusting 3 12.2
2016-May-01 07:16 090 3 gusting 7 12.2
2016-May-01 07:06 315 0 gusting 2 11.7
2016-May-01 06:56 11.7
2016-May-01 06:46 315 4 gusting 6 11.7
2016-May-01 06:36 045 1 gusting 2 11.7
2016-May-01 06:26 11.7
2016-May-01 06:16 315 2 gusting 3 11.7
2016-May-01 06:06 270 1 gusting 2 11.1
2016-May-01 05:56 090 1 gusting 3 11.1
2016-May-01 05:46 315 2 gusting 5 11.1
2016-May-01 05:36 315 2 gusting 4 11.1
2016-May-01 05:26 225 2 gusting 6 11.1
2016-May-01 05:16 135 1 gusting 5 11.1
2016-May-01 05:06 315 2 gusting 5 11.1
2016-May-01 04:56 225 2 gusting 5 11.1
2016-May-01 04:46 315 5 gusting 8 11.1
2016-May-01 04:36 270 1 gusting 2 11.7
2016-May-01 04:26 270 2 gusting 5 11.7
2016-May-01 04:16 045 1 gusting 3 11.7
2016-May-01 04:06 315 5 gusting 5 11.7
2016-May-01 03:56 315 2 gusting 5 11.7
2016-May-01 03:46 315 1 gusting 2 11.7
2016-May-01 03:36 315 2 gusting 6 11.7
2016-May-01 03:26 315 2 gusting 3 11.7
2016-May-01 03:16 045 2 gusting 5 11.7
2016-May-01 03:06 315 2 gusting 2 11.7
2016-May-01 02:56 180 2 gusting 5 11.7
2016-May-01 02:46 11.7
2016-May-01 02:36 11.7
2016-May-01 02:26 045 0 gusting 1 11.7
2016-May-01 02:16 090 2 gusting 6 11.7
2016-May-01 02:06 045 11.7
2016-May-01 01:56 045 0 gusting 1 11.7
2016-May-01 01:46 11.7
2016-May-01 01:36 315 1 gusting 2 11.7
2016-May-01 01:26 315 1 gusting 2 11.1
2016-May-01 01:16 315 0 gusting 2 10.6
2016-May-01 01:06 045 10.6
2016-May-01 00:56 10.6
2016-May-01 00:46 10.6
2016-May-01 00:36 10.6
2016-May-01 00:26 11.1
2016-May-01 00:17 11.1
2016-May-01 00:06 11.7
2016-Apr-30 23:46 11.7
2016-Apr-30 23:37 11.7
2016-Apr-30 23:26 12.2
2016-Apr-30 23:16 12.2
2016-Apr-30 23:06 12.2
2016-Apr-30 22:56 12.8
2016-Apr-30 22:41 12.8
2016-Apr-30 22:26 12.8
2016-Apr-30 22:16 12.8
2016-Apr-30 22:06 12.8
2016-Apr-30 21:56 12.8
2016-Apr-30 21:46 045 12.8
2016-Apr-30 21:36 045 13.3
2016-Apr-30 21:21 045 13.3
2016-Apr-30 21:06 13.3
2016-Apr-30 20:56 13.9
2016-Apr-30 20:46 13.9
2016-Apr-30 20:36 13.9
2016-Apr-30 20:26 045 14.4
2016-Apr-30 20:16 15.0
2016-Apr-30 20:01 15.0
2016-Apr-30 19:45 15.6
2016-Apr-30 19:31 045 16.1
2016-Apr-30 19:21 16.7
2016-Apr-30 19:11 17.2
2016-Apr-30 19:01 17.8
2016-Apr-30 18:46 18.3
2016-Apr-30 18:36 19.4
2016-Apr-30 18:21 225 20.6
2016-Apr-30 18:10 20.6
2016-Apr-30 17:51 20.6
2016-Apr-30 17:41 045 1 gusting 2 20.6
2016-Apr-30 17:31 20.6
2016-Apr-30 17:21 090 1 gusting 3 20.6
2016-Apr-30 17:11 315 0 gusting 1 20.6
2016-Apr-30 17:01 270 0 gusting 1 20.6
2016-Apr-30 16:51 045 0 gusting 2 20.6
2016-Apr-30 16:41 045 20.6
2016-Apr-30 16:31 270 1 gusting 3 20.0
2016-Apr-30 16:21 202 1 gusting 3 20.0
2016-Apr-30 16:11 045 0 gusting 3 20.0
2016-Apr-30 16:01 315 1 gusting 4 19.4
2016-Apr-30 15:51 045 2 gusting 5 18.9
2016-Apr-30 15:41 315 0 gusting 1 18.9
2016-Apr-30 15:31 090 0 gusting 1 18.3
2016-Apr-30 15:21 045 0 gusting 1 18.3
2016-Apr-30 15:11 045 1 gusting 3 18.3
2016-Apr-30 15:01 315 0 gusting 2 18.3
2016-Apr-30 14:51 090 1 gusting 4 18.3
2016-Apr-30 14:41 090 18.9
2016-Apr-30 14:31 090 0 gusting 1 19.4
2016-Apr-30 14:21 270 0 gusting 2 20.0
2016-Apr-30 14:11 090 20.6
2016-Apr-30 14:01 045 2 gusting 6 21.1
2016-Apr-30 13:51 315 2 gusting 5 21.7
2016-Apr-30 13:41 21.7
2016-Apr-30 13:31 21.1
2016-Apr-30 13:21 090 0 gusting 2 21.1
2016-Apr-30 13:11 090 1 gusting 2 21.1
2016-Apr-30 13:01 315 2 gusting 5 21.1
2016-Apr-30 12:51 180 2 gusting 3 20.6
2016-Apr-30 12:41 135 1 gusting 2 20.0
2016-Apr-30 12:31 180 4 gusting 9 20.6
2016-Apr-30 12:21 180 2 gusting 2 20.6
2016-Apr-30 12:11 045 3 gusting 5 21.1
2016-Apr-30 12:01 045 2 gusting 4 21.7
2016-Apr-30 11:51 180 2 gusting 3 21.7
2016-Apr-30 11:41 180 4 gusting 6 21.7
2016-Apr-30 11:31 090 0 gusting 2 21.7
2016-Apr-30 11:21 225 1 gusting 2 21.1
2016-Apr-30 11:11 315 2 gusting 4 20.6
2016-Apr-30 11:01 20.6
2016-Apr-30 10:51 225 1 gusting 4 20.0
2016-Apr-30 10:41 135 2 gusting 4 20.0
2016-Apr-30 10:31 135 0 gusting 3 19.4
2016-Apr-30 10:21 180 4 gusting 7 18.9
2016-Apr-30 10:11 135 1 gusting 2 18.9
2016-Apr-30 10:01 135 1 gusting 5 18.9
2016-Apr-30 09:51 090 1 gusting 3 18.3
2016-Apr-30 09:41 180 2 gusting 3 18.3
2016-Apr-30 09:31 225 2 gusting 3 18.3
2016-Apr-30 09:21 270 2 gusting 5 17.8
2016-Apr-30 09:11 090 1 gusting 3 17.2
2016-Apr-30 09:01 180 0 gusting 1 16.7
2016-Apr-30 08:51 090 1 gusting 3 16.7
2016-Apr-30 08:41 180 2 gusting 3 16.1
2016-Apr-30 08:31 270 3 gusting 5 16.1
2016-Apr-30 08:21 180 2 gusting 4 15.6
2016-Apr-30 08:11 180 3 gusting 5 15.0
2016-Apr-30 08:01 180 2 gusting 3 14.4
2016-Apr-30 07:51 13.3
2016-Apr-30 07:41 12.8
2016-Apr-30 07:31 12.8
2016-Apr-30 07:21 12.8
2016-Apr-30 07:11 12.2
2016-Apr-30 07:01 12.2
2016-Apr-30 06:52 11.7
2016-Apr-30 06:41 11.7
2016-Apr-30 06:31 11.7
2016-Apr-30 06:21 11.7
2016-Apr-30 06:11 11.1
2016-Apr-30 06:01 11.1
2016-Apr-30 05:51 11.1
2016-Apr-30 05:41 11.1
2016-Apr-30 05:32 11.1
2016-Apr-30 05:21 11.1
2016-Apr-30 05:11 11.1
2016-Apr-30 05:01 11.1
2016-Apr-30 04:51 11.1
2016-Apr-30 04:41 11.1
2016-Apr-30 04:31 11.1
2016-Apr-30 04:21 11.1
2016-Apr-30 04:11 11.7
2016-Apr-30 04:01 11.7
2016-Apr-30 03:51 11.7
2016-Apr-30 03:41 090 11.7
2016-Apr-30 03:31 11.7
2016-Apr-30 03:21 11.7
2016-Apr-30 03:11 11.7
2016-Apr-30 03:01 11.7
2016-Apr-30 02:52 090 12.2
2016-Apr-30 02:41 090 12.2
2016-Apr-30 02:31 090 12.2
2016-Apr-30 02:21 12.2
2016-Apr-30 02:11 12.2
2016-Apr-30 02:01 090 12.2
2016-Apr-30 01:51 090 12.2
2016-Apr-30 01:41 090 12.2
2016-Apr-30 01:31 12.2
2016-Apr-30 01:21 12.8
2016-Apr-30 01:12 12.8
2016-Apr-30 01:01 12.8